sensor_id;sensor_type;location;lat;lon;timestamp;pressure;altitude;pressure_sealevel;temperature;humidity
36138;BME280;67787;50.074;21.904;2023-10-19T10:03:54;97931.11;;;11.45;68.71
36138;BME280;67787;50.074;21.904;2023-10-19T10:09:20;97928.52;;;11.48;68.49
36138;BME280;67787;50.074;21.904;2023-10-19T10:11:52;97920.55;;;11.49;68.66
36138;BME280;67787;50.074;21.904;2023-10-19T10:14:22;97917.10;;;11.50;68.72
36138;BME280;67787;50.074;21.904;2023-10-19T10:17:01;97914.11;;;11.50;68.71
36138;BME280;67787;50.074;21.904;2023-10-19T10:19:30;97918.84;;;11.51;68.67
36138;BME280;67787;50.074;21.904;2023-10-19T10:22:10;97917.45;;;11.52;68.51
36138;BME280;67787;50.074;21.904;2023-10-19T10:24:47;97907.77;;;11.53;68.70
36138;BME280;67787;50.074;21.904;2023-10-19T10:27:23;97909.03;;;11.57;68.75
36138;BME280;67787;50.074;21.904;2023-10-19T10:29:57;97920.53;;;11.61;68.75
36138;BME280;67787;50.074;21.904;2023-10-19T10:32:53;97919.98;;;11.67;68.55
36138;BME280;67787;50.074;21.904;2023-10-19T10:38:09;97909.56;;;11.88;68.73
36138;BME280;67787;50.074;21.904;2023-10-19T10:40:48;97914.14;;;12.00;68.66
36138;BME280;67787;50.074;21.904;2023-10-19T10:43:19;97908.73;;;12.08;68.65
36138;BME280;67787;50.074;21.904;2023-10-19T10:45:49;97899.57;;;12.17;68.64
36138;BME280;67787;50.074;21.904;2023-10-19T10:48:18;97885.48;;;12.23;68.58
36138;BME280;67787;50.074;21.904;2023-10-19T10:50:53;97877.20;;;12.30;68.32
36138;BME280;67787;50.074;21.904;2023-10-19T10:53:23;97865.27;;;12.33;68.40
36138;BME280;67787;50.074;21.904;2023-10-19T10:55:53;97878.73;;;12.32;68.17
36138;BME280;67787;50.074;21.904;2023-10-19T10:58:24;97871.73;;;12.27;68.18
36138;BME280;67787;50.074;21.904;2023-10-19T11:00:50;97881.64;;;12.24;68.11
36138;BME280;67787;50.074;21.904;2023-10-19T11:03:18;97879.10;;;12.23;68.25
36138;BME280;67787;50.074;21.904;2023-10-19T11:05:47;97875.08;;;12.24;68.11
36138;BME280;67787;50.074;21.904;2023-10-19T11:08:15;97869.46;;;12.27;67.96
36138;BME280;67787;50.074;21.904;2023-10-19T11:10:50;97856.14;;;12.27;67.93
36138;BME280;67787;50.074;21.904;2023-10-19T11:13:22;97852.38;;;12.27;68.02
36138;BME280;67787;50.074;21.904;2023-10-19T11:15:56;97844.58;;;12.30;68.07
36138;BME280;67787;50.074;21.904;2023-10-19T11:18:32;97831.85;;;12.33;68.13
36138;BME280;67787;50.074;21.904;2023-10-19T11:21:00;97827.03;;;12.35;68.02
36138;BME280;67787;50.074;21.904;2023-10-19T11:26:04;97828.38;;;12.42;68.00
36138;BME280;67787;50.074;21.904;2023-10-19T11:28:32;97833.99;;;12.42;67.95
36138;BME280;67787;50.074;21.904;2023-10-19T11:31:17;97827.79;;;12.42;67.94
36138;BME280;67787;50.074;21.904;2023-10-19T11:33:47;97826.98;;;12.41;67.94
36138;BME280;67787;50.074;21.904;2023-10-19T11:36:19;97826.05;;;12.40;67.90
36138;BME280;67787;50.074;21.904;2023-10-19T11:38:48;97830.44;;;12.39;67.75
36138;BME280;67787;50.074;21.904;2023-10-19T11:41:15;97837.41;;;12.34;67.77
36138;BME280;67787;50.074;21.904;2023-10-19T11:43:45;97837.20;;;12.29;67.72
36138;BME280;67787;50.074;21.904;2023-10-19T11:46:12;97834.33;;;12.26;67.82
36138;BME280;67787;50.074;21.904;2023-10-19T11:48:42;97833.77;;;12.21;67.49
36138;BME280;67787;50.074;21.904;2023-10-19T11:51:11;97830.69;;;12.16;67.69
36138;BME280;67787;50.074;21.904;2023-10-19T11:53:38;97827.63;;;12.13;67.64
36138;BME280;67787;50.074;21.904;2023-10-19T11:56:11;97827.34;;;12.07;67.61
36138;BME280;67787;50.074;21.904;2023-10-19T11:58:43;97833.44;;;12.01;67.51
36138;BME280;67787;50.074;21.904;2023-10-19T12:01:13;97835.00;;;11.93;67.55
36138;BME280;67787;50.074;21.904;2023-10-19T12:03:42;97832.27;;;11.87;67.62
36138;BME280;67787;50.074;21.904;2023-10-19T12:06:12;97820.86;;;11.82;67.53
36138;BME280;67787;50.074;21.904;2023-10-19T12:08:40;97815.17;;;11.76;67.60
36138;BME280;67787;50.074;21.904;2023-10-19T12:11:06;97808.24;;;11.73;67.62
36138;BME280;67787;50.074;21.904;2023-10-19T12:13:45;97798.99;;;11.67;67.49
36138;BME280;67787;50.074;21.904;2023-10-19T12:16:13;97798.45;;;11.64;67.58
36138;BME280;67787;50.074;21.904;2023-10-19T12:18:44;97795.14;;;11.61;67.53
36138;BME280;67787;50.074;21.904;2023-10-19T12:21:11;97798.55;;;11.57;67.51
36138;BME280;67787;50.074;21.904;2023-10-19T12:23:44;97793.00;;;11.52;67.52
36138;BME280;67787;50.074;21.904;2023-10-19T12:26:11;97789.19;;;11.49;67.61
36138;BME280;67787;50.074;21.904;2023-10-19T12:28:39;97784.15;;;11.44;67.57
36138;BME280;67787;50.074;21.904;2023-10-19T12:31:07;97776.14;;;11.41;67.68
36138;BME280;67787;50.074;21.904;2023-10-19T12:33:40;97766.42;;;11.39;67.53
36138;BME280;67787;50.074;21.904;2023-10-19T12:36:11;97748.35;;;11.37;67.52
36138;BME280;67787;50.074;21.904;2023-10-19T12:38:56;97743.66;;;11.37;67.70
36138;BME280;67787;50.074;21.904;2023-10-19T12:41:26;97739.87;;;11.38;67.65
36138;BME280;67787;50.074;21.904;2023-10-19T12:43:58;97734.69;;;11.38;67.73
36138;BME280;67787;50.074;21.904;2023-10-19T12:46:25;97730.20;;;11.37;67.59
36138;BME280;67787;50.074;21.904;2023-10-19T12:48:52;97729.03;;;11.36;67.65
36138;BME280;67787;50.074;21.904;2023-10-19T12:51:20;97718.17;;;11.33;67.66
36138;BME280;67787;50.074;21.904;2023-10-19T12:53:55;97723.16;;;11.29;67.58
36138;BME280;67787;50.074;21.904;2023-10-19T12:56:22;97724.36;;;11.26;67.72
36138;BME280;67787;50.074;21.904;2023-10-19T12:59:00;97722.52;;;11.23;67.66
36138;BME280;67787;50.074;21.904;2023-10-19T13:01:26;97716.61;;;11.21;67.68
36138;BME280;67787;50.074;21.904;2023-10-19T13:03:54;97707.77;;;11.21;67.68
36138;BME280;67787;50.074;21.904;2023-10-19T13:06:22;97707.56;;;11.20;67.77
36138;BME280;67787;50.074;21.904;2023-10-19T13:08:52;97702.30;;;11.17;67.96
36138;BME280;67787;50.074;21.904;2023-10-19T13:11:19;97697.36;;;11.15;67.94
36138;BME280;67787;50.074;21.904;2023-10-19T13:13:46;97694.59;;;11.12;67.82
36138;BME280;67787;50.074;21.904;2023-10-19T13:16:15;97694.47;;;11.12;67.82
36138;BME280;67787;50.074;21.904;2023-10-19T13:18:42;97688.59;;;11.10;67.78
36138;BME280;67787;50.074;21.904;2023-10-19T13:21:09;97689.90;;;11.09;67.84
36138;BME280;67787;50.074;21.904;2023-10-19T13:23:40;97687.11;;;11.09;67.89
36138;BME280;67787;50.074;21.904;2023-10-19T13:26:09;97687.64;;;11.09;67.91
36138;BME280;67787;50.074;21.904;2023-10-19T13:28:43;97684.95;;;11.10;67.93
36138;BME280;67787;50.074;21.904;2023-10-19T13:31:10;97683.88;;;11.09;67.96
36138;BME280;67787;50.074;21.904;2023-10-19T13:33:40;97683.73;;;11.09;68.14
36138;BME280;67787;50.074;21.904;2023-10-19T13:36:13;97680.31;;;11.06;68.04
36138;BME280;67787;50.074;21.904;2023-10-19T13:38:41;97672.88;;;11.04;68.05
36138;BME280;67787;50.074;21.904;2023-10-19T13:41:07;97667.77;;;11.01;68.22
36138;BME280;67787;50.074;21.904;2023-10-19T13:43:39;97665.58;;;10.99;68.11
36138;BME280;67787;50.074;21.904;2023-10-19T13:46:09;97667.72;;;10.97;68.07
36138;BME280;67787;50.074;21.904;2023-10-19T13:48:36;97663.77;;;10.95;68.29
36138;BME280;67787;50.074;21.904;2023-10-19T13:51:06;97669.18;;;10.91;68.22
36138;BME280;67787;50.074;21.904;2023-10-19T13:53:42;97666.05;;;10.88;68.23
36138;BME280;67787;50.074;21.904;2023-10-19T13:56:12;97664.08;;;10.84;68.38
36138;BME280;67787;50.074;21.904;2023-10-19T13:58:48;97661.14;;;10.80;68.23
36138;BME280;67787;50.074;21.904;2023-10-19T14:01:26;97657.11;;;10.76;68.29
36138;BME280;67787;50.074;21.904;2023-10-19T14:03:58;97650.79;;;10.73;68.49
36138;BME280;67787;50.074;21.904;2023-10-19T14:06:27;97641.31;;;10.70;68.55
36138;BME280;67787;50.074;21.904;2023-10-19T14:08:54;97641.41;;;10.66;68.55
36138;BME280;67787;50.074;21.904;2023-10-19T14:11:21;97637.56;;;10.61;68.59
36138;BME280;67787;50.074;21.904;2023-10-19T14:13:49;97638.96;;;10.58;68.61
36138;BME280;67787;50.074;21.904;2023-10-19T14:16:19;97634.00;;;10.54;68.74
36138;BME280;67787;50.074;21.904;2023-10-19T14:18:45;97633.22;;;10.51;68.65
36138;BME280;67787;50.074;21.904;2023-10-19T14:21:17;97633.35;;;10.48;68.42
36138;BME280;67787;50.074;21.904;2023-10-19T14:23:45;97631.94;;;10.46;68.83
36138;BME280;67787;50.074;21.904;2023-10-19T14:26:16;97632.80;;;10.42;68.76
36138;BME280;67787;50.074;21.904;2023-10-19T14:28:44;97634.04;;;10.40;68.78
36138;BME280;67787;50.074;21.904;2023-10-19T14:31:14;97631.71;;;10.39;68.76
36138;BME280;67787;50.074;21.904;2023-10-19T14:33:49;97630.70;;;10.36;68.93
36138;BME280;67787;50.074;21.904;2023-10-19T14:36:16;97630.98;;;10.33;68.94
36138;BME280;67787;50.074;21.904;2023-10-19T14:38:44;97624.02;;;10.32;68.93
36138;BME280;67787;50.074;21.904;2023-10-19T14:41:17;97620.46;;;10.30;69.03
36138;BME280;67787;50.074;21.904;2023-10-19T14:43:43;97616.09;;;10.30;69.17
36138;BME280;67787;50.074;21.904;2023-10-19T14:46:13;97616.77;;;10.27;68.90
36138;BME280;67787;50.074;21.904;2023-10-19T14:48:45;97613.84;;;10.25;69.16
36138;BME280;67787;50.074;21.904;2023-10-19T14:51:13;97616.53;;;10.24;69.07
36138;BME280;67787;50.074;21.904;2023-10-19T14:53:40;97611.98;;;10.24;69.22
36138;BME280;67787;50.074;21.904;2023-10-19T14:56:07;97605.41;;;10.20;69.28
36138;BME280;67787;50.074;21.904;2023-10-19T14:58:34;97604.20;;;10.18;69.25
36138;BME280;67787;50.074;21.904;2023-10-19T15:01:01;97600.73;;;10.18;69.24
36138;BME280;67787;50.074;21.904;2023-10-19T15:03:31;97604.15;;;10.17;69.24
36138;BME280;67787;50.074;21.904;2023-10-19T15:06:01;97602.33;;;10.16;69.37
36138;BME280;67787;50.074;21.904;2023-10-19T15:08:30;97599.19;;;10.13;69.56
36138;BME280;67787;50.074;21.904;2023-10-19T15:11:03;97598.71;;;10.10;69.39
36138;BME280;67787;50.074;21.904;2023-10-19T15:13:29;97602.21;;;10.09;69.34
36138;BME280;67787;50.074;21.904;2023-10-19T15:15:56;97593.08;;;10.09;69.56
36138;BME280;67787;50.074;21.904;2023-10-19T15:18:24;97598.85;;;10.07;69.55
36138;BME280;67787;50.074;21.904;2023-10-19T15:20:51;97597.50;;;10.07;69.52
36138;BME280;67787;50.074;21.904;2023-10-19T15:23:18;97601.58;;;10.07;69.66
36138;BME280;67787;50.074;21.904;2023-10-19T15:25:47;97604.55;;;10.05;69.83
36138;BME280;67787;50.074;21.904;2023-10-19T15:28:20;97598.48;;;10.04;70.07
36138;BME280;67787;50.074;21.904;2023-10-19T15:30:50;97605.67;;;10.03;69.67
36138;BME280;67787;50.074;21.904;2023-10-19T15:33:20;97603.12;;;10.03;69.82
36138;BME280;67787;50.074;21.904;2023-10-19T15:35:49;97606.39;;;10.02;69.74
36138;BME280;67787;50.074;21.904;2023-10-19T15:38:17;97603.50;;;10.03;69.88
36138;BME280;67787;50.074;21.904;2023-10-19T15:40:48;97603.77;;;10.02;70.04
36138;BME280;67787;50.074;21.904;2023-10-19T15:43:19;97605.88;;;10.00;70.07
36138;BME280;67787;50.074;21.904;2023-10-19T15:45:45;97613.89;;;10.00;70.11
36138;BME280;67787;50.074;21.904;2023-10-19T15:48:15;97616.10;;;9.99;70.01
36138;BME280;67787;50.074;21.904;2023-10-19T15:50:44;97614.38;;;9.98;70.07
36138;BME280;67787;50.074;21.904;2023-10-19T15:53:14;97613.05;;;9.97;70.23
